Time;durP1;ratioP1;P1;durP2;ratioP2;P2;SDS_P1;SDS_P2;PMS_P1;PMS_P2;Temp;Humidity;BMP_temperature;BMP_pressure;BME280_temperature;BME280_humidity;BME280_pressure;Samples;Min_cycle;Max_cycle;Signal;HPM_P1;HPM_P2
2022/12/22 03:27:09;;;;;;;72.50;55.93;;;;;;;-141.22;100.00;65034.22;4928780;29;20468;-53
2022/12/22 03:29:36;;;;;;;62.20;55.50;;;;;;;-141.22;100.00;65034.22;4931713;29;21148;-49
2022/12/22 03:32:04;;;;;;;63.67;56.03;;;;;;;-141.22;100.00;65034.22;4930716;29;20436;-52
2022/12/22 03:34:33;;;;;;;71.03;58.90;;;;;;;-141.22;100.00;65034.22;4931086;29;20811;-49
2022/12/22 03:37:01;;;;;;;64.53;57.57;;;;;;;-141.22;100.00;65034.22;4930329;29;20460;-49
2022/12/22 03:39:29;;;;;;;70.87;56.63;;;;;;;-141.22;100.00;65034.22;4930704;29;20477;-46
2022/12/22 03:47:27;;;;;;;70.93;57.13;;;;;;;-141.22;100.00;65034.22;4930913;29;20464;-48
2022/12/22 03:49:56;;;;;;;70.50;57.40;;;;;;;-141.22;100.00;65034.22;4917277;29;20444;-49
2022/12/22 03:52:24;;;;;;;67.37;55.90;;;;;;;-141.22;100.00;65034.22;4930191;29;20984;-52
2022/12/22 03:54:52;;;;;;;65.67;57.77;;;;;;;-141.22;100.00;65034.22;4930591;29;20439;-52
2022/12/22 03:57:19;;;;;;;67.40;56.20;;;;;;;-141.22;100.00;65034.22;4929665;29;20464;-53
2022/12/22 03:59:47;;;;;;;64.33;53.47;;;;;;;-141.22;100.00;65034.22;4930656;29;20484;-52
2022/12/22 04:02:14;;;;;;;65.67;57.63;;;;;;;-141.22;100.00;65034.22;4930608;29;21013;-51
2022/12/22 04:04:42;;;;;;;75.80;57.40;;;;;;;-141.22;100.00;65034.22;4930139;29;20520;-50
2022/12/22 04:07:12;;;;;;;67.27;57.60;;;;;;;-141.22;100.00;65034.22;4929768;29;20972;-49
2022/12/22 04:12:53;;;;;;;78.33;59.00;;;;;;;-141.22;100.00;65034.22;4930607;29;20437;-51
2022/12/22 04:15:12;;;;;;;78.37;58.50;;;;;;;-141.22;100.00;65034.22;4930134;29;20441;-49
2022/12/22 04:17:40;;;;;;;86.37;59.03;;;;;;;-141.22;100.00;65034.22;4929691;29;20468;-47
2022/12/22 04:20:09;;;;;;;75.50;57.63;;;;;;;-141.22;100.00;65034.22;4933402;29;20559;-48
2022/12/22 04:22:38;;;;;;;67.07;56.70;;;;;;;-141.22;100.00;65034.22;4934241;29;20468;-47
2022/12/22 04:25:07;;;;;;;93.40;62.40;;;;;;;-141.22;100.00;65034.22;4934075;29;20452;-49
2022/12/22 04:27:34;;;;;;;74.90;58.37;;;;;;;-141.22;100.00;65034.22;4933165;29;20472;-47
2022/12/22 04:30:02;;;;;;;83.47;60.03;;;;;;;-141.22;100.00;65034.22;4934768;29;20433;-50
2022/12/22 04:32:30;;;;;;;78.43;59.27;;;;;;;-141.22;100.00;65034.22;4933726;29;20456;-48
2022/12/22 04:34:58;;;;;;;88.30;62.50;;;;;;;-141.22;100.00;65034.22;4933323;29;20449;-50
2022/12/22 04:37:26;;;;;;;76.97;59.83;;;;;;;-141.22;100.00;65034.22;4933304;29;20468;-52
2022/12/22 04:39:55;;;;;;;87.10;60.80;;;;;;;-141.22;100.00;65034.22;4933646;29;20999;-47
2022/12/22 04:42:22;;;;;;;94.23;63.93;;;;;;;-141.22;100.00;65034.22;4934477;29;20489;-47
2022/12/22 04:44:50;;;;;;;89.97;63.20;;;;;;;-141.22;100.00;65034.22;4933797;29;20433;-50
2022/12/22 04:47:18;;;;;;;91.40;64.00;;;;;;;-141.22;100.00;65034.22;4933422;29;21073;-52
2022/12/22 04:49:46;;;;;;;107.30;64.53;;;;;;;-141.22;100.00;65034.22;4934071;29;20463;-51
2022/12/22 04:52:13;;;;;;;78.53;59.27;;;;;;;-141.22;100.00;65034.22;4933865;29;20494;-50
2022/12/22 04:54:41;;;;;;;82.60;62.17;;;;;;;-141.22;100.00;65034.22;4933754;29;20436;-47
2022/12/22 04:57:10;;;;;;;97.80;62.43;;;;;;;-141.22;100.00;65034.22;4933623;29;20460;-51
2022/12/22 04:59:37;;;;;;;84.30;62.73;;;;;;;-141.22;100.00;65034.22;4934128;29;20437;-48
2022/12/22 05:02:05;;;;;;;97.40;63.20;;;;;;;-141.22;100.00;65034.22;4933135;29;20472;-48
2022/12/22 05:04:33;;;;;;;105.53;66.30;;;;;;;-141.22;100.00;65034.22;4933063;29;20436;-49
2022/12/22 05:07:00;;;;;;;91.47;63.70;;;;;;;-141.22;100.00;65034.22;4932551;29;20816;-48
2022/12/22 05:09:28;;;;;;;99.23;66.63;;;;;;;-141.22;100.00;65034.22;4933063;29;20433;-51
2022/12/22 05:11:56;;;;;;;105.53;63.47;;;;;;;-141.22;100.00;65034.22;4933730;29;20433;-48
2022/12/22 05:14:24;;;;;;;86.47;61.63;;;;;;;-141.22;100.00;65034.22;4933574;29;20428;-47
2022/12/22 05:16:52;;;;;;;91.77;64.50;;;;;;;-141.22;100.00;65034.22;4932854;29;20471;-51
2022/12/22 05:19:20;;;;;;;91.63;62.37;;;;;;;-141.22;100.00;65034.22;4933734;29;20471;-47
2022/12/22 05:21:53;;;;;;;95.53;62.73;;;;;;;-141.22;100.00;65034.22;4932901;29;20476;-49
2022/12/22 05:24:21;;;;;;;87.60;60.33;;;;;;;-141.22;100.00;65034.22;4932989;29;20456;-53
2022/12/22 05:26:49;;;;;;;102.00;67.67;;;;;;;-141.22;100.00;65034.22;4933001;29;20448;-53
2022/12/22 05:29:16;;;;;;;85.07;64.40;;;;;;;-141.22;100.00;65034.22;4933412;29;20437;-51
2022/12/22 05:31:45;;;;;;;83.73;62.67;;;;;;;-141.22;100.00;65034.22;4933179;29;20437;-49
2022/12/22 05:34:14;;;;;;;90.60;63.00;;;;;;;-141.22;100.00;65034.22;4932550;29;20484;-48
2022/12/22 05:36:41;;;;;;;87.60;61.20;;;;;;;-141.22;100.00;65034.22;4933293;29;20432;-49
2022/12/22 05:39:09;;;;;;;87.07;61.30;;;;;;;-141.22;100.00;65034.22;4923746;29;20627;-47
2022/12/22 05:41:37;;;;;;;86.27;60.63;;;;;;;-141.22;100.00;65034.22;4932948;29;20489;-47
2022/12/22 05:44:05;;;;;;;92.20;63.60;;;;;;;-141.22;100.00;65034.22;4933029;29;20460;-50
2022/12/22 05:46:32;;;;;;;91.17;60.97;;;;;;;-141.22;100.00;65034.22;4932210;29;20436;-48
2022/12/22 05:49:02;;;;;;;80.57;60.50;;;;;;;-141.22;100.00;65034.22;4932529;29;20440;-51
2022/12/22 05:51:29;;;;;;;80.23;61.00;;;;;;;-141.22;100.00;65034.22;4932826;29;20944;-50
2022/12/22 05:53:57;;;;;;;99.13;63.77;;;;;;;-141.22;100.00;65034.22;4932371;29;20512;-48
2022/12/22 05:56:25;;;;;;;74.23;60.47;;;;;;;-141.22;100.00;65034.22;4927595;29;20806;-48
2022/12/22 05:58:53;;;;;;;89.37;62.50;;;;;;;-141.22;100.00;65034.22;4931836;29;20456;-51
2022/12/22 06:01:20;;;;;;;88.03;64.87;;;;;;;-141.22;100.00;65034.22;4931896;29;20829;-51
2022/12/22 06:03:48;;;;;;;92.97;67.70;;;;;;;-141.22;100.00;65034.22;4932158;29;20460;-53
2022/12/22 06:06:24;;;;;;;80.83;63.33;;;;;;;-141.22;100.00;65034.22;4932506;29;20449;-48
2022/12/22 06:08:51;;;;;;;84.73;59.63;;;;;;;-141.22;100.00;65034.22;4930762;29;20465;-51
2022/12/22 06:11:19;;;;;;;90.30;61.67;;;;;;;-141.22;100.00;65034.22;4933014;29;20447;-52
2022/12/22 06:13:46;;;;;;;75.53;59.00;;;;;;;-141.22;100.00;65034.22;4932175;29;20469;-51
2022/12/22 06:16:14;;;;;;;85.53;62.10;;;;;;;-141.22;100.00;65034.22;4932193;29;20433;-46
2022/12/22 06:18:42;;;;;;;90.60;60.03;;;;;;;-141.22;100.00;65034.22;4932119;29;20465;-49
2022/12/22 06:21:09;;;;;;;82.60;61.07;;;;;;;-141.22;100.00;65034.22;4932641;29;20484;-50
2022/12/22 06:23:38;;;;;;;85.60;60.60;;;;;;;-141.22;100.00;65034.22;4929480;29;20469;-53
2022/12/22 06:26:06;;;;;;;80.93;61.60;;;;;;;-141.22;100.00;65034.22;4931214;29;20436;-48
2022/12/22 06:28:34;;;;;;;106.53;63.07;;;;;;;-141.22;100.00;65034.22;4932084;29;20463;-51
2022/12/22 06:31:02;;;;;;;95.23;63.90;;;;;;;-141.22;100.00;65034.22;4931434;29;20480;-53
2022/12/22 06:33:29;;;;;;;80.03;63.77;;;;;;;-141.22;100.00;65034.22;4931535;29;20453;-49
2022/12/22 06:35:57;;;;;;;96.13;64.47;;;;;;;-141.22;100.00;65034.22;4931647;29;20437;-50
2022/12/22 06:38:26;;;;;;;93.40;60.27;;;;;;;-141.22;100.00;65034.22;4931482;29;20461;-52
2022/12/22 06:40:56;;;;;;;84.13;59.17;;;;;;;-141.22;100.00;65034.22;4931138;29;20500;-54
2022/12/22 06:43:23;;;;;;;111.27;65.30;;;;;;;-141.22;100.00;65034.22;4931717;29;20456;-47
2022/12/22 06:45:51;;;;;;;85.80;61.70;;;;;;;-141.22;100.00;65034.22;4931505;29;20944;-52
2022/12/22 06:48:19;;;;;;;96.93;63.00;;;;;;;-141.22;100.00;65034.22;4931571;29;20836;-48
2022/12/22 06:50:47;;;;;;;87.13;64.87;;;;;;;-141.22;100.00;65034.22;4931119;29;20492;-49
2022/12/22 06:53:15;;;;;;;94.00;62.57;;;;;;;-141.22;100.00;65034.22;4931180;29;20461;-53
2022/12/22 06:55:43;;;;;;;97.17;63.00;;;;;;;-141.22;100.00;65034.22;4931834;29;21249;-52
2022/12/22 06:58:12;;;;;;;81.37;59.50;;;;;;;-141.22;100.00;65034.22;4930821;29;20469;-49
2022/12/22 07:00:39;;;;;;;82.10;59.70;;;;;;;-141.22;100.00;65034.22;4931396;29;20487;-47
2022/12/22 07:03:07;;;;;;;84.90;58.77;;;;;;;-141.22;100.00;65034.22;4932460;29;20460;-50
2022/12/22 07:05:35;;;;;;;78.40;57.03;;;;;;;-141.22;100.00;65034.22;4930394;29;20801;-54
2022/12/22 07:08:02;;;;;;;84.40;59.80;;;;;;;-141.22;100.00;65034.22;4930262;29;20461;-52
2022/12/22 07:13:30;;;;;;;73.13;54.93;;;;;;;-141.22;100.00;65034.22;4920848;29;20481;-48
2022/12/22 07:15:58;;;;;;;77.33;54.37;;;;;;;-141.22;100.00;65034.22;4931109;29;20932;-47
2022/12/22 07:18:30;;;;;;;72.77;55.37;;;;;;;-141.22;100.00;65034.22;4931431;29;20465;-48
2022/12/22 07:20:59;;;;;;;68.03;53.70;;;;;;;-141.22;100.00;65034.22;4931209;29;20428;-55
2022/12/22 07:23:27;;;;;;;67.07;53.53;;;;;;;-141.22;100.00;65034.22;4931391;29;20477;-51
2022/12/22 07:25:55;;;;;;;71.17;53.97;;;;;;;-141.22;100.00;65034.22;4931233;29;20443;-49
2022/12/22 07:28:24;;;;;;;68.30;54.07;;;;;;;-141.22;100.00;65034.22;4930951;29;20999;-51
2022/12/22 07:30:54;;;;;;;70.50;54.17;;;;;;;-141.22;100.00;65034.22;4931310;29;20441;-49
2022/12/22 07:33:22;;;;;;;75.90;54.33;;;;;;;-141.22;100.00;65034.22;4930746;29;21011;-48
2022/12/22 07:36:00;;;;;;;71.53;54.10;;;;;;;-141.22;100.00;65034.22;4930773;29;20433;-49
2022/12/22 07:38:28;;;;;;;70.33;52.07;;;;;;;-141.22;100.00;65034.22;4929478;29;20472;-50
2022/12/22 07:40:57;;;;;;;83.23;55.63;;;;;;;-141.22;100.00;65034.22;4931194;29;20941;-48
2022/12/22 07:43:30;;;;;;;64.17;51.73;;;;;;;-141.22;100.00;65034.22;4930622;29;20540;-50
2022/12/22 07:46:00;;;;;;;64.57;52.80;;;;;;;-141.22;100.00;65034.22;4931639;29;20445;-47
2022/12/22 07:51:13;;;;;;;58.53;49.50;;;;;;;-141.22;100.00;65034.22;4931781;29;20437;-47
2022/12/22 07:53:41;;;;;;;63.80;50.70;;;;;;;-141.22;100.00;65034.22;4931159;29;20472;-49
2022/12/22 07:56:08;;;;;;;62.33;49.77;;;;;;;-141.22;100.00;65034.22;4932237;29;20457;-47
2022/12/22 07:58:36;;;;;;;64.20;51.70;;;;;;;-141.22;100.00;65034.22;4933855;29;20472;-51
2022/12/22 08:01:05;;;;;;;59.70;50.40;;;;;;;-141.22;100.00;65034.22;4934325;29;20471;-50
2022/12/22 08:03:33;;;;;;;64.63;50.23;;;;;;;-141.22;100.00;65034.22;4933922;29;20484;-49
2022/12/22 08:06:04;;;;;;;59.90;49.33;;;;;;;-141.22;100.00;65034.22;4933893;29;20440;-51
2022/12/22 08:08:33;;;;;;;59.77;51.87;;;;;;;-141.22;100.00;65034.22;4932697;29;20472;-50
2022/12/22 08:11:01;;;;;;;57.13;50.93;;;;;;;-141.22;100.00;65034.22;4934175;29;20443;-48
2022/12/22 08:13:30;;;;;;;62.33;52.10;;;;;;;-141.22;100.00;65034.22;4933139;29;20671;-49
2022/12/22 08:16:03;;;;;;;57.27;51.00;;;;;;;-141.22;100.00;65034.22;4933127;29;20809;-50
2022/12/22 08:18:33;;;;;;;62.97;52.57;;;;;;;-141.22;100.00;65034.22;4932525;29;20981;-50
2022/12/22 08:21:02;;;;;;;54.67;48.70;;;;;;;-141.22;100.00;65034.22;4933308;29;20440;-53
2022/12/22 08:23:30;;;;;;;59.33;49.57;;;;;;;-141.22;100.00;65034.22;4933491;29;20484;-46
2022/12/22 08:26:02;;;;;;;52.33;46.20;;;;;;;-141.22;100.00;65034.22;4934017;29;20535;-47
2022/12/22 08:28:34;;;;;;;58.90;48.00;;;;;;;-141.22;100.00;65034.22;4934790;29;20511;-48
2022/12/22 08:31:02;;;;;;;54.40;49.17;;;;;;;-141.22;100.00;65034.22;4936158;29;20437;-49
2022/12/22 08:33:30;;;;;;;58.10;51.40;;;;;;;-141.22;100.00;65034.22;4934457;29;20464;-49
2022/12/22 08:35:59;;;;;;;50.77;45.37;;;;;;;-141.22;100.00;65034.22;4933985;29;20448;-49
2022/12/22 08:38:35;;;;;;;52.83;47.33;;;;;;;-141.22;100.00;65034.22;4935065;29;20472;-49
2022/12/22 08:41:02;;;;;;;54.23;48.00;;;;;;;-141.22;100.00;65034.22;4935122;29;20436;-51
2022/12/22 08:43:32;;;;;;;53.63;47.53;;;;;;;-141.22;100.00;65034.22;4934153;29;20555;-47
2022/12/22 08:46:00;;;;;;;53.57;47.77;;;;;;;-141.22;100.00;65034.22;4934205;29;20444;-49
2022/12/22 08:48:27;;;;;;;55.07;49.20;;;;;;;-141.22;100.00;65034.22;4935737;29;21014;-48
2022/12/22 08:50:55;;;;;;;53.93;46.37;;;;;;;-141.22;100.00;65034.22;4935357;29;20433;-51
2022/12/22 08:53:24;;;;;;;49.60;44.77;;;;;;;-141.22;100.00;65034.22;4935094;29;20475;-46
2022/12/22 08:56:12;;;;;;;48.50;43.67;;;;;;;-141.22;100.00;65034.22;4933927;29;20437;-48
2022/12/22 08:58:40;;;;;;;54.27;48.10;;;;;;;-141.22;100.00;65034.22;4935023;29;20469;-49
2022/12/22 09:01:07;;;;;;;52.10;47.00;;;;;;;-141.22;100.00;65034.22;4935863;29;20436;-47
2022/12/22 09:03:35;;;;;;;47.90;43.23;;;;;;;-141.22;100.00;65034.22;4935271;29;20592;-46
2022/12/22 09:06:04;;;;;;;50.30;45.07;;;;;;;-141.22;100.00;65034.22;4934871;29;20443;-52
2022/12/22 09:08:33;;;;;;;50.10;45.27;;;;;;;-141.22;100.00;65034.22;4933632;29;20481;-52
2022/12/22 09:11:03;;;;;;;50.40;45.37;;;;;;;-141.22;100.00;65034.22;4934837;29;20940;-49
2022/12/22 09:13:30;;;;;;;47.97;43.47;;;;;;;-141.22;100.00;65034.22;4935772;29;20468;-48
2022/12/22 09:15:58;;;;;;;48.63;43.37;;;;;;;-141.22;100.00;65034.22;4934091;29;20443;-49
2022/12/22 09:18:26;;;;;;;49.83;45.00;;;;;;;-141.22;100.00;65034.22;4933596;29;20465;-48
2022/12/22 09:20:54;;;;;;;52.40;47.07;;;;;;;-141.22;100.00;65034.22;4933922;29;20432;-48
2022/12/22 09:23:22;;;;;;;51.43;46.43;;;;;;;-141.22;100.00;65034.22;4934146;29;20489;-47
2022/12/22 09:25:51;;;;;;;49.00;44.07;;;;;;;-141.22;100.00;65034.22;4934266;29;20437;-48
2022/12/22 09:28:19;;;;;;;50.37;45.70;;;;;;;-141.22;100.00;65034.22;4933759;29;20467;-48
2022/12/22 09:30:50;;;;;;;50.37;45.17;;;;;;;-141.22;100.00;65034.22;4981109;23;20484;-52
2022/12/22 09:33:17;;;;;;;51.00;46.40;;;;;;;-141.22;100.00;65034.22;5033443;28;20836;-51
2022/12/22 09:35:45;;;;;;;51.37;46.37;;;;;;;-141.22;100.00;65034.22;5033259;28;20432;-47
2022/12/22 09:38:13;;;;;;;48.33;43.53;;;;;;;-141.22;100.00;65034.22;5032560;28;20934;-48
2022/12/22 09:40:40;;;;;;;49.10;44.47;;;;;;;-141.22;100.00;65034.22;5033304;28;20452;-53
2022/12/22 09:43:12;;;;;;;51.03;46.20;;;;;;;-141.22;100.00;65034.22;5033087;28;20474;-48
2022/12/22 09:45:40;;;;;;;49.50;44.60;;;;;;;-141.22;100.00;65034.22;5030564;28;20440;-49
2022/12/22 09:48:12;;;;;;;49.03;44.50;;;;;;;-141.22;100.00;65034.22;5032771;28;20460;-47
2022/12/22 09:50:41;;;;;;;49.03;43.90;;;;;;;-141.22;100.00;65034.22;5032991;28;21028;-49
2022/12/22 09:53:18;;;;;;;49.23;44.83;;;;;;;-141.22;100.00;65034.22;5033198;28;20433;-50
2022/12/22 09:55:48;;;;;;;51.80;46.60;;;;;;;-141.22;100.00;65034.22;5032985;28;20428;-51
2022/12/22 09:58:25;;;;;;;49.93;44.93;;;;;;;-141.22;100.00;65034.22;5032578;28;20848;-48
2022/12/22 10:01:01;;;;;;;51.13;46.20;;;;;;;-141.22;100.00;65034.22;5033066;28;20475;-50
2022/12/22 10:03:40;;;;;;;47.03;42.90;;;;;;;-141.22;100.00;65034.22;5033052;28;20832;-52
2022/12/22 10:06:14;;;;;;;48.57;44.07;;;;;;;-141.22;100.00;65034.22;5032944;28;20470;-49
2022/12/22 10:08:41;;;;;;;46.97;42.63;;;;;;;-141.22;100.00;65034.22;5032290;28;20464;-45
2022/12/22 10:11:14;;;;;;;47.27;42.80;;;;;;;-141.22;100.00;65034.22;5032372;28;20456;-45
2022/12/22 10:13:43;;;;;;;49.10;44.57;;;;;;;-141.22;100.00;65034.22;5032094;28;20443;-45
2022/12/22 10:16:19;;;;;;;48.00;43.63;;;;;;;-141.22;100.00;65034.22;5031856;28;20996;-44
2022/12/22 10:19:05;;;;;;;46.27;41.97;;;;;;;-141.22;100.00;65034.22;5031708;28;20510;-45
2022/12/22 10:21:37;;;;;;;46.83;42.67;;;;;;;-141.22;100.00;65034.22;5032432;28;20602;-44
2022/12/22 10:24:18;;;;;;;45.90;41.80;;;;;;;-141.22;100.00;65034.22;5031808;28;20490;-45
2022/12/22 10:26:46;;;;;;;46.07;41.80;;;;;;;-141.22;100.00;65034.22;5031811;28;20432;-49
2022/12/22 10:29:17;;;;;;;46.97;42.83;;;;;;;-141.22;100.00;65034.22;5031890;28;20468;-45
2022/12/22 10:32:00;;;;;;;45.03;41.13;;;;;;;-141.22;100.00;65034.22;5031920;28;20969;-52
2022/12/22 10:34:28;;;;;;;42.20;38.60;;;;;;;-141.22;100.00;65034.22;5031946;28;20442;-51
2022/12/22 10:37:00;;;;;;;39.87;36.17;;;;;;;-141.22;100.00;65034.22;5031823;28;20447;-53
2022/12/22 10:39:30;;;;;;;40.07;36.80;;;;;;;-141.22;100.00;65034.22;5032107;28;20436;-49
2022/12/22 10:42:01;;;;;;;40.53;37.30;;;;;;;-141.22;100.00;65034.22;5032008;28;21016;-48
2022/12/22 10:44:33;;;;;;;42.47;38.47;;;;;;;-141.22;100.00;65034.22;5031832;28;20563;-53
2022/12/22 10:47:12;;;;;;;42.20;38.80;;;;;;;-141.22;100.00;65034.22;5031419;28;20460;-50
2022/12/22 10:49:46;;;;;;;43.60;39.63;;;;;;;-141.22;100.00;65034.22;5032341;28;20535;-49
2022/12/22 10:52:16;;;;;;;43.67;39.50;;;;;;;-141.22;100.00;65034.22;5031948;28;20443;-51
2022/12/22 10:54:49;;;;;;;41.40;37.80;;;;;;;-141.22;100.00;65034.22;5031725;28;20424;-48
2022/12/22 10:57:28;;;;;;;42.93;39.43;;;;;;;-141.22;100.00;65034.22;5031309;28;20471;-47
2022/12/22 10:59:59;;;;;;;43.00;39.20;;;;;;;-141.22;100.00;65034.22;5031837;28;20935;-48
2022/12/22 11:02:34;;;;;;;43.00;38.50;;;;;;;-141.22;100.00;65034.22;5032275;28;20421;-51
2022/12/22 11:05:05;;;;;;;37.70;34.70;;;;;;;-141.22;100.00;65034.22;5031751;28;20503;-50
2022/12/22 11:07:35;;;;;;;36.77;34.03;;;;;;;-141.22;100.00;65034.22;5031167;28;21033;-50
2022/12/22 11:10:15;;;;;;;37.27;34.20;;;;;;;-141.22;100.00;65034.22;5031916;28;20429;-50
2022/12/22 11:12:59;;;;;;;36.10;33.17;;;;;;;-141.22;100.00;65034.22;5031983;28;20852;-51
2022/12/22 11:15:36;;;;;;;35.57;32.70;;;;;;;-141.22;100.00;65034.22;5031542;28;20436;-45
2022/12/22 11:18:13;;;;;;;37.90;34.93;;;;;;;-141.22;100.00;65034.22;5030683;28;20838;-45
2022/12/22 11:20:51;;;;;;;37.47;34.63;;;;;;;-141.22;100.00;65034.22;5031212;28;20458;-45
2022/12/22 11:23:28;;;;;;;36.57;33.87;;;;;;;-141.22;100.00;65034.22;5031524;28;20450;-47
2022/12/22 11:26:04;;;;;;;36.63;33.73;;;;;;;-141.22;100.00;65034.22;5030983;28;20490;-45
2022/12/22 11:28:48;;;;;;;36.50;33.80;;;;;;;-141.22;100.00;65034.22;5031431;28;20827;-46
2022/12/22 11:31:32;;;;;;;35.30;32.57;;;;;;;-141.22;100.00;65034.22;5035341;28;20462;-49
2022/12/22 11:34:12;;;;;;;36.27;33.30;;;;;;;-141.22;100.00;65034.22;5035161;28;20908;-48
2022/12/22 11:37:02;;;;;;;35.83;32.93;;;;;;;-141.22;100.00;65034.22;5034774;28;20432;-46
2022/12/22 11:39:40;;;;;;;35.63;33.23;;;;;;;-141.22;100.00;65034.22;5035101;28;20432;-45
2022/12/22 11:42:23;;;;;;;35.77;33.37;;;;;;;-141.22;100.00;65034.22;5035027;28;20981;-45
2022/12/22 11:45:00;;;;;;;35.30;32.70;;;;;;;-141.22;100.00;65034.22;5034869;28;20554;-48
2022/12/22 11:47:38;;;;;;;34.37;31.93;;;;;;;-141.22;100.00;65034.22;5034543;28;20459;-46
2022/12/22 11:50:21;;;;;;;37.03;33.97;;;;;;;-141.22;100.00;65034.22;5035126;28;20439;-45
2022/12/22 11:53:33;;;;;;;35.27;32.90;;;;;;;-141.22;100.00;65034.22;5035166;28;20513;-47
2022/12/22 11:56:13;;;;;;;35.47;33.07;;;;;;;-141.22;100.00;65034.22;5035043;28;20439;-46
2022/12/22 11:58:57;;;;;;;36.87;33.87;;;;;;;-141.22;100.00;65034.22;5034661;28;20456;-48
2022/12/22 12:01:43;;;;;;;36.03;33.53;;;;;;;-141.22;100.00;65034.22;5034561;28;20477;-45
2022/12/22 12:04:29;;;;;;;36.40;33.80;;;;;;;-141.22;100.00;65034.22;5034764;28;20460;-46
2022/12/22 12:07:20;;;;;;;38.00;34.63;;;;;;;-141.22;100.00;65034.22;5034481;28;20510;-45
2022/12/22 12:10:03;;;;;;;38.90;35.60;;;;;;;-141.22;100.00;65034.22;5034652;28;20432;-45
2022/12/22 12:12:43;;;;;;;37.10;34.40;;;;;;;-141.22;100.00;65034.22;5034745;28;20507;-45
2022/12/22 12:15:24;;;;;;;36.43;33.43;;;;;;;-141.22;100.00;65034.22;5034424;28;20494;-47
2022/12/22 12:18:18;;;;;;;36.50;33.30;;;;;;;-141.22;100.00;65034.22;5034164;28;20916;-45
2022/12/22 12:20:57;;;;;;;35.30;32.53;;;;;;;-141.22;100.00;65034.22;5034073;28;20456;-46
2022/12/22 12:23:50;;;;;;;35.67;32.77;;;;;;;-141.22;100.00;65034.22;5034208;28;20534;-45
2022/12/22 12:26:22;;;;;;;38.33;34.57;;;;;;;-141.22;100.00;65034.22;5034277;28;20800;-49
2022/12/22 12:29:06;;;;;;;37.23;34.07;;;;;;;-141.22;100.00;65034.22;5033717;28;20498;-50
2022/12/22 12:31:39;;;;;;;34.67;32.10;;;;;;;-141.22;100.00;65034.22;5034331;28;20510;-49
2022/12/22 12:34:12;;;;;;;35.17;32.53;;;;;;;-141.22;100.00;65034.22;5034204;28;20420;-45
2022/12/22 12:36:49;;;;;;;37.03;33.70;;;;;;;-141.22;100.00;65034.22;5033794;28;20429;-47
2022/12/22 12:39:22;;;;;;;38.97;35.30;;;;;;;-141.22;100.00;65034.22;5026290;28;20435;-44
2022/12/22 12:41:58;;;;;;;35.10;32.47;;;;;;;-141.22;100.00;65034.22;5034307;28;20466;-46
2022/12/22 12:44:30;;;;;;;36.07;32.97;;;;;;;-141.22;100.00;65034.22;5031684;28;20872;-45
2022/12/22 12:47:21;;;;;;;40.63;33.70;;;;;;;-141.22;100.00;65034.22;5023567;28;20467;-45
2022/12/22 12:50:30;;;;;;;35.03;32.50;;;;;;;-141.22;100.00;65034.22;5032719;28;20435;-45
2022/12/22 12:53:17;;;;;;;35.53;32.20;;;;;;;-141.22;100.00;65034.22;5028735;28;20532;-47
2022/12/22 12:55:54;;;;;;;38.03;34.40;;;;;;;-141.22;100.00;65034.22;5033715;28;20424;-45
2022/12/22 12:58:48;;;;;;;36.80;33.90;;;;;;;-141.22;100.00;65034.22;5032279;28;20838;-47
2022/12/22 13:01:53;;;;;;;37.27;33.80;;;;;;;-141.22;100.00;65034.22;5034028;28;20452;-46
2022/12/22 13:05:13;;;;;;;39.20;35.70;;;;;;;-141.22;100.00;65034.22;5033597;28;20566;-47
2022/12/22 13:08:13;;;;;;;36.13;33.20;;;;;;;-141.22;100.00;65034.22;5033442;28;20502;-45
2022/12/22 13:10:48;;;;;;;39.20;35.10;;;;;;;-141.22;100.00;65034.22;5033744;28;20448;-46
2022/12/22 13:13:48;;;;;;;37.30;33.80;;;;;;;-141.22;100.00;65034.22;5021360;28;20967;-50
2022/12/22 13:16:28;;;;;;;37.00;33.40;;;;;;;-141.22;100.00;65034.22;5019957;28;21230;-49
2022/12/22 13:18:58;;;;;;;36.93;33.40;;;;;;;-141.22;100.00;65034.22;5012111;28;20464;-51
2022/12/22 13:21:38;;;;;;;36.50;33.20;;;;;;;-141.22;100.00;65034.22;5012594;28;20457;-52
2022/12/22 13:24:27;;;;;;;36.30;33.40;;;;;;;-141.22;100.00;65034.22;5011914;28;20473;-53
2022/12/22 13:27:05;;;;;;;36.10;32.80;;;;;;;-141.22;100.00;65034.22;5012126;28;21993;-48
2022/12/22 13:29:41;;;;;;;34.53;31.60;;;;;;;-141.22;100.00;65034.22;5011949;28;20433;-48
2022/12/22 13:32:21;;;;;;;35.50;32.60;;;;;;;-141.22;100.00;65034.22;5012145;28;20492;-49
2022/12/22 13:35:03;;;;;;;36.80;33.80;;;;;;;-141.22;100.00;65034.22;5012061;28;20527;-49
2022/12/22 13:37:52;;;;;;;36.70;33.30;;;;;;;-141.22;100.00;65034.22;5011495;28;20469;-52
2022/12/22 13:40:22;;;;;;;37.03;34.10;;;;;;;-141.22;100.00;65034.22;5011736;28;20456;-49
2022/12/22 13:42:52;;;;;;;35.90;32.87;;;;;;;-141.22;100.00;65034.22;5011855;28;20433;-49
2022/12/22 13:45:29;;;;;;;37.30;33.90;;;;;;;-141.22;100.00;65034.22;5011493;28;20477;-49
2022/12/22 13:47:59;;;;;;;37.87;34.53;;;;;;;-141.22;100.00;65034.22;5011440;28;20464;-49
2022/12/22 13:50:32;;;;;;;37.37;33.87;;;;;;;-141.22;100.00;65034.22;5011464;28;20804;-48
2022/12/22 13:53:02;;;;;;;38.23;34.70;;;;;;;-141.22;100.00;65034.22;5009378;28;20453;-49
2022/12/22 13:55:32;;;;;;;37.40;33.90;;;;;;;-141.22;100.00;65034.22;5011296;28;20430;-46
2022/12/22 13:58:08;;;;;;;37.70;33.90;;;;;;;-141.22;100.00;65034.22;5010866;28;20469;-46
2022/12/22 14:00:36;;;;;;;36.03;32.83;;;;;;;-141.22;100.00;65034.22;5011138;28;20491;-51
2022/12/22 14:03:13;;;;;;;35.90;32.50;;;;;;;-141.22;100.00;65034.22;5011897;28;20437;-51
2022/12/22 14:06:01;;;;;;;38.00;33.33;;;;;;;-141.22;100.00;65034.22;5006897;28;20500;-48
2022/12/22 14:08:28;;;;;;;35.83;31.93;;;;;;;-141.22;100.00;65034.22;5010433;28;20475;-51
2022/12/22 14:10:56;;;;;;;35.30;32.40;;;;;;;-141.22;100.00;65034.22;5010529;28;20461;-48
2022/12/22 14:13:31;;;;;;;34.67;32.00;;;;;;;-141.22;100.00;65034.22;5011221;28;20441;-47
2022/12/22 14:16:01;;;;;;;34.53;31.33;;;;;;;-141.22;100.00;65034.22;5011253;28;20427;-52
2022/12/22 14:18:30;;;;;;;35.07;32.20;;;;;;;-141.22;100.00;65034.22;5010487;28;20476;-51
2022/12/22 14:20:59;;;;;;;34.63;31.80;;;;;;;-141.22;100.00;65034.22;5011416;28;20453;-52
2022/12/22 14:23:30;;;;;;;34.90;32.10;;;;;;;-141.22;100.00;65034.22;5010917;28;20536;-48
2022/12/22 14:26:00;;;;;;;37.03;34.20;;;;;;;-141.22;100.00;65034.22;5010705;28;20480;-48
2022/12/22 14:28:34;;;;;;;36.87;33.73;;;;;;;-141.22;100.00;65034.22;5026290;28;20471;-50
2022/12/22 14:31:03;;;;;;;35.97;33.17;;;;;;;-141.22;100.00;65034.22;5030739;28;20552;-48
2022/12/22 14:33:33;;;;;;;36.37;33.10;;;;;;;-141.22;100.00;65034.22;5030768;28;20953;-49
2022/12/22 14:36:15;;;;;;;36.60;33.23;;;;;;;-141.22;100.00;65034.22;5030375;28;21030;-49
2022/12/22 14:38:46;;;;;;;36.20;33.40;;;;;;;-141.22;100.00;65034.22;5026334;28;20476;-51
2022/12/22 14:44:13;;;;;;;36.20;32.40;;;;;;;-141.22;100.00;65034.22;5010804;28;20938;-54
2022/12/22 14:46:43;;;;;;;36.50;33.47;;;;;;;-141.22;100.00;65034.22;5010401;28;20464;-49
2022/12/22 14:49:15;;;;;;;36.80;32.90;;;;;;;-141.22;100.00;65034.22;5010374;28;20421;-50
2022/12/22 14:51:53;;;;;;;37.33;33.73;;;;;;;-141.22;100.00;65034.22;5011163;28;20540;-48
2022/12/22 14:54:28;;;;;;;34.90;32.00;;;;;;;-141.22;100.00;65034.22;5010278;28;20471;-52
2022/12/22 14:57:02;;;;;;;33.50;31.13;;;;;;;-141.22;100.00;65034.22;5010275;28;20457;-49
2022/12/22 14:59:39;;;;;;;43.30;34.10;;;;;;;-141.22;100.00;65034.22;5010577;28;20433;-54
2022/12/22 15:02:21;;;;;;;35.13;32.27;;;;;;;-141.22;100.00;65034.22;5010759;28;20465;-51